sensor_id;sensor_type;location;lat;lon;timestamp;P1;durP1;ratioP1;P2;durP2;ratioP2
11986;SDS011;6053;51.382;6.768;2022-07-19T00:00:17;1.23;;;1.02;;
11986;SDS011;6053;51.382;6.768;2022-07-19T00:02:47;2.22;;;1.10;;
11986;SDS011;6053;51.382;6.768;2022-07-19T00:05:15;2.37;;;1.30;;
11986;SDS011;6053;51.382;6.768;2022-07-19T00:07:44;2.67;;;1.27;;
11986;SDS011;6053;51.382;6.768;2022-07-19T00:10:15;2.53;;;1.17;;
11986;SDS011;6053;51.382;6.768;2022-07-19T00:12:46;1.52;;;1.10;;
11986;SDS011;6053;51.382;6.768;2022-07-19T00:15:16;1.05;;;1.00;;
11986;SDS011;6053;51.382;6.768;2022-07-19T00:17:46;1.38;;;1.13;;
11986;SDS011;6053;51.382;6.768;2022-07-19T00:20:17;1.30;;;1.07;;
11986;SDS011;6053;51.382;6.768;2022-07-19T00:22:47;1.47;;;1.10;;
11986;SDS011;6053;51.382;6.768;2022-07-19T00:25:16;1.00;;;0.98;;
11986;SDS011;6053;51.382;6.768;2022-07-19T00:27:45;2.43;;;1.20;;
11986;SDS011;6053;51.382;6.768;2022-07-19T00:30:15;1.00;;;1.00;;
11986;SDS011;6053;51.382;6.768;2022-07-19T00:32:43;2.30;;;1.30;;
11986;SDS011;6053;51.382;6.768;2022-07-19T00:35:12;1.10;;;0.90;;
11986;SDS011;6053;51.382;6.768;2022-07-19T00:37:40;1.83;;;1.10;;
11986;SDS011;6053;51.382;6.768;2022-07-19T00:40:14;1.10;;;1.00;;
11986;SDS011;6053;51.382;6.768;2022-07-19T00:42:48;1.33;;;0.80;;
11986;SDS011;6053;51.382;6.768;2022-07-19T00:45:18;1.17;;;1.00;;
11986;SDS011;6053;51.382;6.768;2022-07-19T00:47:46;3.83;;;1.20;;
11986;SDS011;6053;51.382;6.768;2022-07-19T00:50:15;2.03;;;1.37;;
11986;SDS011;6053;51.382;6.768;2022-07-19T00:52:48;1.70;;;1.10;;
11986;SDS011;6053;51.382;6.768;2022-07-19T00:55:19;1.42;;;1.05;;
11986;SDS011;6053;51.382;6.768;2022-07-19T00:57:49;1.20;;;1.03;;
11986;SDS011;6053;51.382;6.768;2022-07-19T01:00:19;0.82;;;0.80;;
11986;SDS011;6053;51.382;6.768;2022-07-19T01:02:48;1.75;;;1.10;;
11986;SDS011;6053;51.382;6.768;2022-07-19T01:05:18;2.25;;;1.15;;
11986;SDS011;6053;51.382;6.768;2022-07-19T01:07:47;2.00;;;1.10;;
11986;SDS011;6053;51.382;6.768;2022-07-19T01:10:15;1.20;;;1.10;;
11986;SDS011;6053;51.382;6.768;2022-07-19T01:12:44;1.13;;;1.02;;
11986;SDS011;6053;51.382;6.768;2022-07-19T01:15:13;1.17;;;0.95;;
11986;SDS011;6053;51.382;6.768;2022-07-19T01:17:44;1.40;;;1.00;;
11986;SDS011;6053;51.382;6.768;2022-07-19T01:20:14;1.05;;;0.95;;
11986;SDS011;6053;51.382;6.768;2022-07-19T01:22:45;2.17;;;1.00;;
11986;SDS011;6053;51.382;6.768;2022-07-19T01:25:14;1.20;;;1.10;;
11986;SDS011;6053;51.382;6.768;2022-07-19T01:27:44;1.20;;;1.00;;
11986;SDS011;6053;51.382;6.768;2022-07-19T01:30:15;1.60;;;0.95;;
11986;SDS011;6053;51.382;6.768;2022-07-19T01:32:46;2.00;;;0.90;;
11986;SDS011;6053;51.382;6.768;2022-07-19T01:35:15;0.93;;;0.90;;
11986;SDS011;6053;51.382;6.768;2022-07-19T01:37:46;1.67;;;1.08;;
11986;SDS011;6053;51.382;6.768;2022-07-19T01:40:16;0.90;;;0.90;;
11986;SDS011;6053;51.382;6.768;2022-07-19T01:42:46;1.38;;;1.05;;
11986;SDS011;6053;51.382;6.768;2022-07-19T01:45:16;1.10;;;1.00;;
11986;SDS011;6053;51.382;6.768;2022-07-19T01:47:46;0.90;;;0.90;;
11986;SDS011;6053;51.382;6.768;2022-07-19T01:50:15;2.17;;;1.20;;
11986;SDS011;6053;51.382;6.768;2022-07-19T01:52:45;1.77;;;1.10;;
11986;SDS011;6053;51.382;6.768;2022-07-19T01:55:17;2.07;;;1.20;;
11986;SDS011;6053;51.382;6.768;2022-07-19T01:57:46;1.30;;;1.10;;
11986;SDS011;6053;51.382;6.768;2022-07-19T02:00:16;1.83;;;1.10;;
11986;SDS011;6053;51.382;6.768;2022-07-19T02:02:45;1.27;;;1.00;;
11986;SDS011;6053;51.382;6.768;2022-07-19T02:05:14;1.30;;;1.02;;
11986;SDS011;6053;51.382;6.768;2022-07-19T02:07:45;1.75;;;1.20;;
11986;SDS011;6053;51.382;6.768;2022-07-19T02:10:15;1.63;;;1.10;;
11986;SDS011;6053;51.382;6.768;2022-07-19T02:12:45;1.20;;;1.10;;
11986;SDS011;6053;51.382;6.768;2022-07-19T02:15:13;1.30;;;1.17;;
11986;SDS011;6053;51.382;6.768;2022-07-19T02:17:42;1.35;;;1.00;;
11986;SDS011;6053;51.382;6.768;2022-07-19T02:20:11;1.13;;;1.08;;
11986;SDS011;6053;51.382;6.768;2022-07-19T02:22:40;3.25;;;1.13;;
11986;SDS011;6053;51.382;6.768;2022-07-19T02:25:10;1.92;;;1.27;;
11986;SDS011;6053;51.382;6.768;2022-07-19T02:27:39;1.40;;;1.30;;
11986;SDS011;6053;51.382;6.768;2022-07-19T02:30:08;1.42;;;1.05;;
11986;SDS011;6053;51.382;6.768;2022-07-19T02:32:38;1.08;;;1.00;;
11986;SDS011;6053;51.382;6.768;2022-07-19T02:35:07;1.83;;;1.08;;
11986;SDS011;6053;51.382;6.768;2022-07-19T02:37:37;2.60;;;1.10;;
11986;SDS011;6053;51.382;6.768;2022-07-19T02:40:07;1.33;;;1.23;;
11986;SDS011;6053;51.382;6.768;2022-07-19T02:42:37;1.20;;;1.10;;
11986;SDS011;6053;51.382;6.768;2022-07-19T02:45:07;1.10;;;1.00;;
11986;SDS011;6053;51.382;6.768;2022-07-19T02:47:36;1.73;;;1.10;;
11986;SDS011;6053;51.382;6.768;2022-07-19T02:50:05;1.20;;;1.10;;
11986;SDS011;6053;51.382;6.768;2022-07-19T02:52:35;1.20;;;1.10;;
11986;SDS011;6053;51.382;6.768;2022-07-19T02:55:04;1.10;;;1.00;;
11986;SDS011;6053;51.382;6.768;2022-07-19T02:57:33;1.25;;;1.15;;
11986;SDS011;6053;51.382;6.768;2022-07-19T03:00:04;1.20;;;1.10;;
11986;SDS011;6053;51.382;6.768;2022-07-19T03:02:35;2.20;;;1.27;;
11986;SDS011;6053;51.382;6.768;2022-07-19T03:05:04;0.90;;;0.90;;
11986;SDS011;6053;51.382;6.768;2022-07-19T03:07:33;1.10;;;1.10;;
11986;SDS011;6053;51.382;6.768;2022-07-19T03:10:02;1.25;;;1.05;;
11986;SDS011;6053;51.382;6.768;2022-07-19T03:12:31;0.97;;;0.97;;
11986;SDS011;6053;51.382;6.768;2022-07-19T03:15:00;1.30;;;1.20;;
11986;SDS011;6053;51.382;6.768;2022-07-19T03:17:31;2.22;;;1.20;;
11986;SDS011;6053;51.382;6.768;2022-07-19T03:19:59;1.10;;;1.00;;
11986;SDS011;6053;51.382;6.768;2022-07-19T03:22:28;1.20;;;1.13;;
11986;SDS011;6053;51.382;6.768;2022-07-19T03:24:57;2.20;;;1.10;;
11986;SDS011;6053;51.382;6.768;2022-07-19T03:27:26;1.35;;;1.10;;
11986;SDS011;6053;51.382;6.768;2022-07-19T03:29:54;2.45;;;1.10;;
11986;SDS011;6053;51.382;6.768;2022-07-19T03:32:23;1.13;;;1.05;;
11986;SDS011;6053;51.382;6.768;2022-07-19T03:34:53;1.00;;;1.00;;
11986;SDS011;6053;51.382;6.768;2022-07-19T03:37:21;1.40;;;1.20;;
11986;SDS011;6053;51.382;6.768;2022-07-19T03:39:49;1.42;;;1.10;;
11986;SDS011;6053;51.382;6.768;2022-07-19T03:42:18;1.45;;;1.00;;
11986;SDS011;6053;51.382;6.768;2022-07-19T03:44:46;1.20;;;1.10;;
11986;SDS011;6053;51.382;6.768;2022-07-19T03:47:14;1.55;;;1.20;;
11986;SDS011;6053;51.382;6.768;2022-07-19T03:49:43;2.70;;;1.40;;
11986;SDS011;6053;51.382;6.768;2022-07-19T03:52:13;2.45;;;1.50;;
11986;SDS011;6053;51.382;6.768;2022-07-19T03:54:44;1.35;;;1.20;;
11986;SDS011;6053;51.382;6.768;2022-07-19T03:57:12;1.40;;;1.30;;
11986;SDS011;6053;51.382;6.768;2022-07-19T03:59:40;1.63;;;1.33;;
11986;SDS011;6053;51.382;6.768;2022-07-19T04:02:09;1.70;;;1.30;;
11986;SDS011;6053;51.382;6.768;2022-07-19T04:04:38;1.65;;;1.30;;
11986;SDS011;6053;51.382;6.768;2022-07-19T04:07:06;1.58;;;1.40;;
11986;SDS011;6053;51.382;6.768;2022-07-19T04:09:36;1.50;;;1.40;;
11986;SDS011;6053;51.382;6.768;2022-07-19T04:12:05;3.05;;;1.20;;
11986;SDS011;6053;51.382;6.768;2022-07-19T04:14:33;2.55;;;1.70;;
11986;SDS011;6053;51.382;6.768;2022-07-19T04:17:01;2.03;;;1.50;;
11986;SDS011;6053;51.382;6.768;2022-07-19T04:19:31;2.10;;;1.33;;
11986;SDS011;6053;51.382;6.768;2022-07-19T04:21:59;1.52;;;1.30;;
11986;SDS011;6053;51.382;6.768;2022-07-19T04:24:27;3.15;;;1.35;;
11986;SDS011;6053;51.382;6.768;2022-07-19T04:26:57;2.10;;;1.60;;
11986;SDS011;6053;51.382;6.768;2022-07-19T04:29:25;2.40;;;1.50;;
11986;SDS011;6053;51.382;6.768;2022-07-19T04:31:54;2.20;;;1.40;;
11986;SDS011;6053;51.382;6.768;2022-07-19T04:34:22;1.90;;;1.38;;
11986;SDS011;6053;51.382;6.768;2022-07-19T04:36:51;1.20;;;1.10;;
11986;SDS011;6053;51.382;6.768;2022-07-19T04:39:19;1.77;;;1.40;;
11986;SDS011;6053;51.382;6.768;2022-07-19T04:41:47;1.50;;;1.40;;
11986;SDS011;6053;51.382;6.768;2022-07-19T04:44:17;1.30;;;1.20;;
11986;SDS011;6053;51.382;6.768;2022-07-19T04:46:45;2.67;;;1.20;;
11986;SDS011;6053;51.382;6.768;2022-07-19T04:49:14;2.08;;;1.50;;
11986;SDS011;6053;51.382;6.768;2022-07-19T04:51:42;1.60;;;1.30;;
11986;SDS011;6053;51.382;6.768;2022-07-19T04:54:11;1.40;;;1.20;;
11986;SDS011;6053;51.382;6.768;2022-07-19T04:56:39;3.20;;;1.30;;
11986;SDS011;6053;51.382;6.768;2022-07-19T04:59:07;2.05;;;1.27;;
11986;SDS011;6053;51.382;6.768;2022-07-19T05:01:37;1.80;;;1.30;;
11986;SDS011;6053;51.382;6.768;2022-07-19T05:04:05;2.33;;;1.40;;
11986;SDS011;6053;51.382;6.768;2022-07-19T05:06:34;1.73;;;1.27;;
11986;SDS011;6053;51.382;6.768;2022-07-19T05:09:03;1.97;;;1.60;;
11986;SDS011;6053;51.382;6.768;2022-07-19T05:11:31;1.77;;;1.30;;
11986;SDS011;6053;51.382;6.768;2022-07-19T05:14:00;2.30;;;1.50;;
11986;SDS011;6053;51.382;6.768;2022-07-19T05:16:29;2.15;;;1.42;;
11986;SDS011;6053;51.382;6.768;2022-07-19T05:18:58;4.50;;;1.75;;
11986;SDS011;6053;51.382;6.768;2022-07-19T05:21:27;2.20;;;1.45;;
11986;SDS011;6053;51.382;6.768;2022-07-19T05:23:55;1.83;;;1.60;;
11986;SDS011;6053;51.382;6.768;2022-07-19T05:26:24;2.73;;;1.40;;
11986;SDS011;6053;51.382;6.768;2022-07-19T05:28:52;2.33;;;1.50;;
11986;SDS011;6053;51.382;6.768;2022-07-19T05:31:20;3.28;;;1.60;;
11986;SDS011;6053;51.382;6.768;2022-07-19T05:33:49;2.63;;;1.70;;
11986;SDS011;6053;51.382;6.768;2022-07-19T05:36:19;2.25;;;1.60;;
11986;SDS011;6053;51.382;6.768;2022-07-19T05:38:47;2.10;;;1.50;;
11986;SDS011;6053;51.382;6.768;2022-07-19T05:41:16;2.30;;;1.60;;
11986;SDS011;6053;51.382;6.768;2022-07-19T05:43:50;3.10;;;1.55;;
11986;SDS011;6053;51.382;6.768;2022-07-19T05:46:19;1.98;;;1.35;;
11986;SDS011;6053;51.382;6.768;2022-07-19T05:48:48;1.55;;;1.30;;
11986;SDS011;6053;51.382;6.768;2022-07-19T05:51:18;2.45;;;1.20;;
11986;SDS011;6053;51.382;6.768;2022-07-19T05:53:47;2.65;;;1.38;;
11986;SDS011;6053;51.382;6.768;2022-07-19T05:56:16;2.10;;;1.40;;
11986;SDS011;6053;51.382;6.768;2022-07-19T05:58:44;1.70;;;1.40;;
11986;SDS011;6053;51.382;6.768;2022-07-19T06:01:13;1.50;;;1.40;;
11986;SDS011;6053;51.382;6.768;2022-07-19T06:03:50;2.10;;;1.23;;
11986;SDS011;6053;51.382;6.768;2022-07-19T06:06:26;3.28;;;1.20;;
11986;SDS011;6053;51.382;6.768;2022-07-19T06:08:56;1.13;;;1.02;;
11986;SDS011;6053;51.382;6.768;2022-07-19T06:11:26;1.90;;;1.10;;
11986;SDS011;6053;51.382;6.768;2022-07-19T06:13:55;1.10;;;1.00;;
11986;SDS011;6053;51.382;6.768;2022-07-19T06:16:33;1.65;;;1.00;;
11986;SDS011;6053;51.382;6.768;2022-07-19T06:19:02;3.85;;;1.20;;
11986;SDS011;6053;51.382;6.768;2022-07-19T06:21:30;2.00;;;1.05;;
11986;SDS011;6053;51.382;6.768;2022-07-19T06:23:59;2.28;;;1.00;;
11986;SDS011;6053;51.382;6.768;2022-07-19T06:26:28;1.75;;;1.00;;
11986;SDS011;6053;51.382;6.768;2022-07-19T06:28:57;2.53;;;1.05;;
11986;SDS011;6053;51.382;6.768;2022-07-19T06:31:25;1.55;;;0.80;;
11986;SDS011;6053;51.382;6.768;2022-07-19T06:33:55;2.50;;;1.10;;
11986;SDS011;6053;51.382;6.768;2022-07-19T06:36:23;1.75;;;0.90;;
11986;SDS011;6053;51.382;6.768;2022-07-19T06:38:53;1.52;;;1.00;;
11986;SDS011;6053;51.382;6.768;2022-07-19T06:41:22;3.50;;;1.20;;
11986;SDS011;6053;51.382;6.768;2022-07-19T06:43:56;2.40;;;1.00;;
11986;SDS011;6053;51.382;6.768;2022-07-19T06:46:24;2.83;;;1.20;;
11986;SDS011;6053;51.382;6.768;2022-07-19T06:48:53;2.35;;;1.00;;
11986;SDS011;6053;51.382;6.768;2022-07-19T06:51:22;2.67;;;1.08;;
11986;SDS011;6053;51.382;6.768;2022-07-19T06:53:51;2.40;;;0.90;;
11986;SDS011;6053;51.382;6.768;2022-07-19T06:56:19;1.58;;;1.30;;
11986;SDS011;6053;51.382;6.768;2022-07-19T06:58:48;2.80;;;0.90;;
11986;SDS011;6053;51.382;6.768;2022-07-19T07:01:16;2.35;;;0.90;;
11986;SDS011;6053;51.382;6.768;2022-07-19T07:03:45;1.63;;;1.00;;
11986;SDS011;6053;51.382;6.768;2022-07-19T07:06:14;1.80;;;0.80;;
11986;SDS011;6053;51.382;6.768;2022-07-19T07:08:44;3.67;;;0.80;;
11986;SDS011;6053;51.382;6.768;2022-07-19T07:11:12;2.70;;;1.10;;
11986;SDS011;6053;51.382;6.768;2022-07-19T07:13:40;0.85;;;0.82;;
11986;SDS011;6053;51.382;6.768;2022-07-19T07:16:09;3.85;;;0.88;;
11986;SDS011;6053;51.382;6.768;2022-07-19T07:18:37;1.48;;;0.80;;
11986;SDS011;6053;51.382;6.768;2022-07-19T07:21:06;2.77;;;1.00;;
11986;SDS011;6053;51.382;6.768;2022-07-19T07:23:34;1.70;;;0.70;;
11986;SDS011;6053;51.382;6.768;2022-07-19T07:26:05;0.80;;;0.60;;
11986;SDS011;6053;51.382;6.768;2022-07-19T07:28:34;1.85;;;1.05;;
11986;SDS011;6053;51.382;6.768;2022-07-19T07:31:02;1.27;;;0.90;;
11986;SDS011;6053;51.382;6.768;2022-07-19T07:33:31;2.40;;;1.13;;
11986;SDS011;6053;51.382;6.768;2022-07-19T07:35:59;3.50;;;0.82;;
11986;SDS011;6053;51.382;6.768;2022-07-19T07:38:28;1.83;;;0.70;;
11986;SDS011;6053;51.382;6.768;2022-07-19T07:40:56;1.25;;;0.82;;
11986;SDS011;6053;51.382;6.768;2022-07-19T07:43:46;1.20;;;0.80;;
11986;SDS011;6053;51.382;6.768;2022-07-19T07:46:14;1.40;;;0.60;;
11986;SDS011;6053;51.382;6.768;2022-07-19T07:48:43;1.02;;;0.85;;
11986;SDS011;6053;51.382;6.768;2022-07-19T07:51:11;2.47;;;0.80;;
11986;SDS011;6053;51.382;6.768;2022-07-19T07:54:00;1.90;;;0.70;;
11986;SDS011;6053;51.382;6.768;2022-07-19T07:56:29;1.80;;;0.60;;
11986;SDS011;6053;51.382;6.768;2022-07-19T07:58:58;0.93;;;0.80;;
11986;SDS011;6053;51.382;6.768;2022-07-19T08:01:27;2.25;;;0.82;;
11986;SDS011;6053;51.382;6.768;2022-07-19T08:03:56;1.40;;;0.50;;
11986;SDS011;6053;51.382;6.768;2022-07-19T08:06:24;3.08;;;0.90;;
11986;SDS011;6053;51.382;6.768;2022-07-19T08:08:53;2.20;;;1.08;;
11986;SDS011;6053;51.382;6.768;2022-07-19T08:11:21;3.00;;;0.85;;
11986;SDS011;6053;51.382;6.768;2022-07-19T08:13:49;2.33;;;0.50;;
11986;SDS011;6053;51.382;6.768;2022-07-19T08:16:19;2.17;;;0.90;;
11986;SDS011;6053;51.382;6.768;2022-07-19T08:18:48;1.13;;;0.70;;
11986;SDS011;6053;51.382;6.768;2022-07-19T08:21:16;1.20;;;0.60;;
11986;SDS011;6053;51.382;6.768;2022-07-19T08:23:45;2.90;;;0.87;;
11986;SDS011;6053;51.382;6.768;2022-07-19T08:26:13;0.80;;;0.70;;
11986;SDS011;6053;51.382;6.768;2022-07-19T08:28:41;3.63;;;0.90;;
11986;SDS011;6053;51.382;6.768;2022-07-19T08:31:13;3.27;;;0.90;;
11986;SDS011;6053;51.382;6.768;2022-07-19T08:33:43;0.75;;;0.60;;
11986;SDS011;6053;51.382;6.768;2022-07-19T08:36:12;2.33;;;1.02;;
11986;SDS011;6053;51.382;6.768;2022-07-19T08:38:41;2.88;;;0.75;;
11986;SDS011;6053;51.382;6.768;2022-07-19T08:41:09;1.52;;;0.88;;
11986;SDS011;6053;51.382;6.768;2022-07-19T08:43:40;1.15;;;1.00;;
11986;SDS011;6053;51.382;6.768;2022-07-19T08:46:08;2.10;;;0.90;;
11986;SDS011;6053;51.382;6.768;2022-07-19T08:48:37;1.23;;;0.85;;
11986;SDS011;6053;51.382;6.768;2022-07-19T08:51:14;1.88;;;0.80;;
11986;SDS011;6053;51.382;6.768;2022-07-19T08:53:46;0.98;;;0.93;;
11986;SDS011;6053;51.382;6.768;2022-07-19T08:56:16;2.23;;;0.90;;
11986;SDS011;6053;51.382;6.768;2022-07-19T08:59:04;2.80;;;0.52;;
11986;SDS011;6053;51.382;6.768;2022-07-19T09:01:34;0.90;;;0.80;;
11986;SDS011;6053;51.382;6.768;2022-07-19T09:04:05;2.28;;;0.70;;
11986;SDS011;6053;51.382;6.768;2022-07-19T09:06:41;1.15;;;0.52;;
11986;SDS011;6053;51.382;6.768;2022-07-19T09:09:12;1.80;;;0.70;;
11986;SDS011;6053;51.382;6.768;2022-07-19T09:11:44;1.67;;;0.63;;
11986;SDS011;6053;51.382;6.768;2022-07-19T09:14:18;1.02;;;0.88;;
11986;SDS011;6053;51.382;6.768;2022-07-19T09:16:52;2.70;;;0.90;;
11986;SDS011;6053;51.382;6.768;2022-07-19T09:19:23;0.98;;;0.80;;
11986;SDS011;6053;51.382;6.768;2022-07-19T09:21:56;1.58;;;0.90;;
11986;SDS011;6053;51.382;6.768;2022-07-19T09:24:27;1.10;;;0.80;;
11986;SDS011;6053;51.382;6.768;2022-07-19T09:27:03;1.40;;;0.75;;
11986;SDS011;6053;51.382;6.768;2022-07-19T09:29:34;1.33;;;0.73;;
11986;SDS011;6053;51.382;6.768;2022-07-19T09:32:07;1.38;;;0.80;;
11986;SDS011;6053;51.382;6.768;2022-07-19T09:34:38;0.60;;;0.50;;
11986;SDS011;6053;51.382;6.768;2022-07-19T09:37:10;5.30;;;0.88;;
11986;SDS011;6053;51.382;6.768;2022-07-19T09:39:42;6.82;;;1.00;;
11986;SDS011;6053;51.382;6.768;2022-07-19T09:42:13;1.10;;;0.90;;
11986;SDS011;6053;51.382;6.768;2022-07-19T09:44:43;2.20;;;0.80;;
11986;SDS011;6053;51.382;6.768;2022-07-19T09:47:12;2.00;;;0.80;;
11986;SDS011;6053;51.382;6.768;2022-07-19T09:49:56;1.65;;;0.80;;
11986;SDS011;6053;51.382;6.768;2022-07-19T09:52:27;0.90;;;0.47;;
11986;SDS011;6053;51.382;6.768;2022-07-19T09:55:05;2.67;;;0.70;;
11986;SDS011;6053;51.382;6.768;2022-07-19T09:57:36;2.43;;;0.83;;
11986;SDS011;6053;51.382;6.768;2022-07-19T10:00:06;1.10;;;1.00;;
11986;SDS011;6053;51.382;6.768;2022-07-19T10:02:37;2.30;;;0.90;;
11986;SDS011;6053;51.382;6.768;2022-07-19T10:05:08;1.70;;;0.80;;
11986;SDS011;6053;51.382;6.768;2022-07-19T10:07:39;1.60;;;0.50;;
11986;SDS011;6053;51.382;6.768;2022-07-19T10:10:09;5.30;;;0.80;;
11986;SDS011;6053;51.382;6.768;2022-07-19T10:12:40;1.48;;;0.70;;
11986;SDS011;6053;51.382;6.768;2022-07-19T10:15:10;2.03;;;0.90;;
11986;SDS011;6053;51.382;6.768;2022-07-19T10:17:41;1.98;;;0.70;;
11986;SDS011;6053;51.382;6.768;2022-07-19T10:20:23;3.00;;;0.80;;
11986;SDS011;6053;51.382;6.768;2022-07-19T10:22:54;2.10;;;0.80;;
11986;SDS011;6053;51.382;6.768;2022-07-19T10:25:27;3.05;;;0.77;;
11986;SDS011;6053;51.382;6.768;2022-07-19T10:28:28;1.38;;;0.80;;
11986;SDS011;6053;51.382;6.768;2022-07-19T10:31:26;0.80;;;0.60;;
11986;SDS011;6053;51.382;6.768;2022-07-19T10:33:58;1.70;;;0.60;;
11986;SDS011;6053;51.382;6.768;2022-07-19T10:36:32;1.60;;;0.70;;
11986;SDS011;6053;51.382;6.768;2022-07-19T10:39:25;0.90;;;0.70;;
11986;SDS011;6053;51.382;6.768;2022-07-19T10:42:11;0.97;;;0.70;;
11986;SDS011;6053;51.382;6.768;2022-07-19T10:47:57;0.93;;;0.60;;
11986;SDS011;6053;51.382;6.768;2022-07-19T10:56:37;1.83;;;0.70;;
11986;SDS011;6053;51.382;6.768;2022-07-19T10:59:39;1.05;;;0.47;;
11986;SDS011;6053;51.382;6.768;2022-07-19T11:02:21;1.52;;;0.60;;
11986;SDS011;6053;51.382;6.768;2022-07-19T11:05:19;2.10;;;0.63;;
11986;SDS011;6053;51.382;6.768;2022-07-19T11:07:49;1.70;;;0.70;;
11986;SDS011;6053;51.382;6.768;2022-07-19T11:10:22;1.95;;;0.60;;
11986;SDS011;6053;51.382;6.768;2022-07-19T11:12:54;4.03;;;0.68;;
11986;SDS011;6053;51.382;6.768;2022-07-19T11:15:24;0.88;;;0.68;;
11986;SDS011;6053;51.382;6.768;2022-07-19T11:18:00;1.65;;;0.68;;
11986;SDS011;6053;51.382;6.768;2022-07-19T11:20:31;3.03;;;0.70;;
11986;SDS011;6053;51.382;6.768;2022-07-19T11:23:02;0.63;;;0.50;;
11986;SDS011;6053;51.382;6.768;2022-07-19T11:25:34;0.77;;;0.50;;
11986;SDS011;6053;51.382;6.768;2022-07-19T11:28:07;1.02;;;0.52;;
11986;SDS011;6053;51.382;6.768;2022-07-19T11:30:47;0.50;;;0.50;;
11986;SDS011;6053;51.382;6.768;2022-07-19T11:33:20;1.02;;;0.50;;
11986;SDS011;6053;51.382;6.768;2022-07-19T11:35:52;0.95;;;0.40;;
11986;SDS011;6053;51.382;6.768;2022-07-19T11:38:34;1.00;;;0.40;;
11986;SDS011;6053;51.382;6.768;2022-07-19T11:41:07;0.90;;;0.50;;
11986;SDS011;6053;51.382;6.768;2022-07-19T11:43:40;0.45;;;0.45;;
11986;SDS011;6053;51.382;6.768;2022-07-19T11:46:09;0.95;;;0.50;;
11986;SDS011;6053;51.382;6.768;2022-07-19T11:48:43;1.40;;;0.65;;
11986;SDS011;6053;51.382;6.768;2022-07-19T11:51:12;0.88;;;0.45;;
11986;SDS011;6053;51.382;6.768;2022-07-19T11:53:41;0.50;;;0.50;;
11986;SDS011;6053;51.382;6.768;2022-07-19T11:56:16;4.57;;;0.82;;
11986;SDS011;6053;51.382;6.768;2022-07-19T11:58:48;0.98;;;0.68;;
11986;SDS011;6053;51.382;6.768;2022-07-19T12:01:22;2.50;;;0.50;;
11986;SDS011;6053;51.382;6.768;2022-07-19T12:03:53;1.08;;;0.52;;
11986;SDS011;6053;51.382;6.768;2022-07-19T12:06:33;0.50;;;0.50;;
11986;SDS011;6053;51.382;6.768;2022-07-19T12:09:05;1.67;;;0.57;;
11986;SDS011;6053;51.382;6.768;2022-07-19T12:11:39;1.17;;;0.50;;
11986;SDS011;6053;51.382;6.768;2022-07-19T12:14:17;1.23;;;0.38;;
11986;SDS011;6053;51.382;6.768;2022-07-19T12:16:47;0.80;;;0.45;;
11986;SDS011;6053;51.382;6.768;2022-07-19T12:19:17;0.75;;;0.70;;
11986;SDS011;6053;51.382;6.768;2022-07-19T12:21:46;1.23;;;0.63;;
11986;SDS011;6053;51.382;6.768;2022-07-19T12:24:16;1.13;;;0.75;;
11986;SDS011;6053;51.382;6.768;2022-07-19T12:27:02;0.90;;;0.50;;
11986;SDS011;6053;51.382;6.768;2022-07-19T12:29:34;3.90;;;0.57;;
11986;SDS011;6053;51.382;6.768;2022-07-19T12:32:11;1.40;;;0.50;;
11986;SDS011;6053;51.382;6.768;2022-07-19T12:34:42;1.42;;;0.60;;
11986;SDS011;6053;51.382;6.768;2022-07-19T12:37:19;1.33;;;0.60;;
11986;SDS011;6053;51.382;6.768;2022-07-19T12:39:56;0.73;;;0.50;;
11986;SDS011;6053;51.382;6.768;2022-07-19T12:42:26;0.80;;;0.60;;
11986;SDS011;6053;51.382;6.768;2022-07-19T12:45:06;1.55;;;0.70;;
11986;SDS011;6053;51.382;6.768;2022-07-19T12:47:35;0.80;;;0.65;;
11986;SDS011;6053;51.382;6.768;2022-07-19T12:50:05;0.98;;;0.50;;
11986;SDS011;6053;51.382;6.768;2022-07-19T12:52:38;1.50;;;0.60;;
11986;SDS011;6053;51.382;6.768;2022-07-19T12:55:07;2.10;;;0.70;;
11986;SDS011;6053;51.382;6.768;2022-07-19T12:57:44;1.50;;;0.60;;
11986;SDS011;6053;51.382;6.768;2022-07-19T13:00:15;0.68;;;0.60;;
11986;SDS011;6053;51.382;6.768;2022-07-19T13:02:46;3.40;;;0.60;;
11986;SDS011;6053;51.382;6.768;2022-07-19T13:05:16;1.57;;;0.50;;
11986;SDS011;6053;51.382;6.768;2022-07-19T13:07:45;1.38;;;0.70;;
11986;SDS011;6053;51.382;6.768;2022-07-19T13:10:14;0.70;;;0.50;;
11986;SDS011;6053;51.382;6.768;2022-07-19T13:12:44;1.23;;;0.60;;
11986;SDS011;6053;51.382;6.768;2022-07-19T13:15:14;2.25;;;0.63;;
11986;SDS011;6053;51.382;6.768;2022-07-19T13:17:43;0.80;;;0.55;;
11986;SDS011;6053;51.382;6.768;2022-07-19T13:20:12;1.40;;;0.70;;
11986;SDS011;6053;51.382;6.768;2022-07-19T13:22:42;1.08;;;0.52;;
11986;SDS011;6053;51.382;6.768;2022-07-19T13:25:11;0.80;;;0.40;;
11986;SDS011;6053;51.382;6.768;2022-07-19T13:27:59;1.23;;;0.50;;
11986;SDS011;6053;51.382;6.768;2022-07-19T13:30:30;0.68;;;0.40;;
11986;SDS011;6053;51.382;6.768;2022-07-19T13:32:58;0.90;;;0.50;;
11986;SDS011;6053;51.382;6.768;2022-07-19T13:35:31;0.65;;;0.40;;
11986;SDS011;6053;51.382;6.768;2022-07-19T13:38:00;2.50;;;0.70;;
11986;SDS011;6053;51.382;6.768;2022-07-19T13:40:29;0.80;;;0.50;;
11986;SDS011;6053;51.382;6.768;2022-07-19T13:42:58;0.68;;;0.40;;
11986;SDS011;6053;51.382;6.768;2022-07-19T13:45:27;1.33;;;0.45;;
11986;SDS011;6053;51.382;6.768;2022-07-19T13:47:57;1.83;;;0.60;;
11986;SDS011;6053;51.382;6.768;2022-07-19T13:50:27;1.00;;;0.50;;
11986;SDS011;6053;51.382;6.768;2022-07-19T13:52:56;0.50;;;0.47;;
11986;SDS011;6053;51.382;6.768;2022-07-19T13:55:26;1.30;;;0.55;;
11986;SDS011;6053;51.382;6.768;2022-07-19T13:57:55;1.42;;;0.50;;
11986;SDS011;6053;51.382;6.768;2022-07-19T14:00:24;1.20;;;0.60;;
11986;SDS011;6053;51.382;6.768;2022-07-19T14:02:54;0.45;;;0.45;;
11986;SDS011;6053;51.382;6.768;2022-07-19T14:05:23;1.95;;;0.50;;
11986;SDS011;6053;51.382;6.768;2022-07-19T14:07:52;1.10;;;0.60;;
11986;SDS011;6053;51.382;6.768;2022-07-19T14:10:20;1.40;;;0.60;;
11986;SDS011;6053;51.382;6.768;2022-07-19T14:12:49;0.60;;;0.60;;
11986;SDS011;6053;51.382;6.768;2022-07-19T14:15:37;0.90;;;0.45;;
11986;SDS011;6053;51.382;6.768;2022-07-19T14:18:09;1.83;;;0.60;;
11986;SDS011;6053;51.382;6.768;2022-07-19T14:20:39;0.40;;;0.40;;
11986;SDS011;6053;51.382;6.768;2022-07-19T14:23:08;1.08;;;0.50;;
11986;SDS011;6053;51.382;6.768;2022-07-19T14:25:37;1.63;;;0.90;;
11986;SDS011;6053;51.382;6.768;2022-07-19T14:28:18;1.30;;;0.90;;
11986;SDS011;6053;51.382;6.768;2022-07-19T14:30:47;0.50;;;0.50;;
11986;SDS011;6053;51.382;6.768;2022-07-19T14:33:17;1.73;;;0.60;;
11986;SDS011;6053;51.382;6.768;2022-07-19T14:35:46;0.47;;;0.40;;
11986;SDS011;6053;51.382;6.768;2022-07-19T14:38:14;1.20;;;0.40;;
11986;SDS011;6053;51.382;6.768;2022-07-19T14:40:43;1.05;;;0.40;;
11986;SDS011;6053;51.382;6.768;2022-07-19T14:43:12;1.02;;;1.02;;
11986;SDS011;6053;51.382;6.768;2022-07-19T14:45:40;0.95;;;0.55;;
11986;SDS011;6053;51.382;6.768;2022-07-19T14:48:09;1.92;;;0.50;;
11986;SDS011;6053;51.382;6.768;2022-07-19T14:50:40;0.50;;;0.50;;
11986;SDS011;6053;51.382;6.768;2022-07-19T14:53:09;2.20;;;0.50;;
11986;SDS011;6053;51.382;6.768;2022-07-19T14:55:37;0.55;;;0.47;;
11986;SDS011;6053;51.382;6.768;2022-07-19T14:58:06;0.40;;;0.40;;
11986;SDS011;6053;51.382;6.768;2022-07-19T15:00:35;0.50;;;0.50;;
11986;SDS011;6053;51.382;6.768;2022-07-19T15:03:04;0.57;;;0.50;;
11986;SDS011;6053;51.382;6.768;2022-07-19T15:05:33;0.50;;;0.50;;
11986;SDS011;6053;51.382;6.768;2022-07-19T15:08:03;0.50;;;0.50;;
11986;SDS011;6053;51.382;6.768;2022-07-19T15:10:32;0.60;;;0.50;;
11986;SDS011;6053;51.382;6.768;2022-07-19T15:13:00;1.90;;;0.40;;
11986;SDS011;6053;51.382;6.768;2022-07-19T15:15:29;1.40;;;0.52;;
11986;SDS011;6053;51.382;6.768;2022-07-19T15:17:58;0.77;;;0.50;;
11986;SDS011;6053;51.382;6.768;2022-07-19T15:20:35;0.60;;;0.50;;
11986;SDS011;6053;51.382;6.768;2022-07-19T15:23:06;1.90;;;0.60;;
11986;SDS011;6053;51.382;6.768;2022-07-19T15:25:34;2.40;;;0.40;;
11986;SDS011;6053;51.382;6.768;2022-07-19T15:28:03;1.30;;;0.60;;
11986;SDS011;6053;51.382;6.768;2022-07-19T15:30:32;0.40;;;0.40;;